sensor_id;sensor_type;location;lat;lon;timestamp;pressure;altitude;pressure_sealevel;temperature;humidity
39773;BME280;25451;51.960;6.250;2023-12-22T00:01:12;99896.00;;;6.29;89.92
39773;BME280;25451;51.960;6.250;2023-12-22T00:03:41;99896.00;;;6.29;89.37
39773;BME280;25451;51.960;6.250;2023-12-22T00:06:06;99907.56;;;6.31;89.14
39773;BME280;25451;51.960;6.250;2023-12-22T00:08:32;99914.72;;;6.32;89.71
39773;BME280;25451;51.960;6.250;2023-12-22T00:10:57;99912.44;;;6.29;89.62
39773;BME280;25451;51.960;6.250;2023-12-22T00:13:23;99915.19;;;6.29;89.13
39773;BME280;25451;51.960;6.250;2023-12-22T00:15:48;99922.09;;;6.32;89.79
39773;BME280;25451;51.960;6.250;2023-12-22T00:18:13;99933.06;;;6.32;90.04
39773;BME280;25451;51.960;6.250;2023-12-22T00:20:38;99935.22;;;6.30;89.63
39773;BME280;25451;51.960;6.250;2023-12-22T00:23:04;99941.28;;;6.32;89.87
39773;BME280;25451;51.960;6.250;2023-12-22T00:25:29;99932.22;;;6.31;89.80
39773;BME280;25451;51.960;6.250;2023-12-22T00:27:54;99950.09;;;6.34;89.26
39773;BME280;25451;51.960;6.250;2023-12-22T00:30:19;99954.16;;;6.31;89.21
39773;BME280;25451;51.960;6.250;2023-12-22T00:32:45;99944.88;;;6.32;89.55
39773;BME280;25451;51.960;6.250;2023-12-22T00:35:10;99944.38;;;6.35;89.74
39773;BME280;25451;51.960;6.250;2023-12-22T00:37:36;99948.44;;;6.33;89.70
39773;BME280;25451;51.960;6.250;2023-12-22T00:40:02;99965.69;;;6.33;89.94
39773;BME280;25451;51.960;6.250;2023-12-22T00:42:30;99954.53;;;6.35;89.63
39773;BME280;25451;51.960;6.250;2023-12-22T00:44:55;99952.59;;;6.35;89.53
39773;BME280;25451;51.960;6.250;2023-12-22T00:47:21;99965.25;;;6.36;89.66
39773;BME280;25451;51.960;6.250;2023-12-22T00:49:46;99967.72;;;6.38;90.16
39773;BME280;25451;51.960;6.250;2023-12-22T00:52:11;99953.78;;;6.39;89.50
39773;BME280;25451;51.960;6.250;2023-12-22T00:54:37;99953.78;;;6.39;89.96
39773;BME280;25451;51.960;6.250;2023-12-22T00:57:02;99963.69;;;6.40;89.67
39773;BME280;25451;51.960;6.250;2023-12-22T00:59:27;99957.13;;;6.41;89.22
39773;BME280;25451;51.960;6.250;2023-12-22T01:01:53;99968.69;;;6.43;89.90
39773;BME280;25451;51.960;6.250;2023-12-22T01:04:18;99961.09;;;6.45;89.81
39773;BME280;25451;51.960;6.250;2023-12-22T01:06:44;99973.69;;;6.46;89.75
39773;BME280;25451;51.960;6.250;2023-12-22T01:09:09;99983.00;;;6.45;90.02
39773;BME280;25451;51.960;6.250;2023-12-22T01:11:34;99980.88;;;6.47;89.80
39773;BME280;25451;51.960;6.250;2023-12-22T01:13:59;99975.97;;;6.49;89.46
39773;BME280;25451;51.960;6.250;2023-12-22T01:16:25;99978.72;;;6.49;89.82
39773;BME280;25451;51.960;6.250;2023-12-22T01:18:50;99986.34;;;6.47;89.67
39773;BME280;25451;51.960;6.250;2023-12-22T01:21:16;99986.09;;;6.49;89.58
39773;BME280;25451;51.960;6.250;2023-12-22T01:23:42;100003.13;;;6.51;89.83
39773;BME280;25451;51.960;6.250;2023-12-22T01:26:07;99991.34;;;6.50;90.05
39773;BME280;25451;51.960;6.250;2023-12-22T01:28:33;99974.03;;;6.50;89.57
39773;BME280;25451;51.960;6.250;2023-12-22T01:30:59;99989.09;;;6.47;89.85
39773;BME280;25451;51.960;6.250;2023-12-22T01:33:25;99988.00;;;6.48;89.70
39773;BME280;25451;51.960;6.250;2023-12-22T01:35:50;99986.09;;;6.49;89.30
39773;BME280;25451;51.960;6.250;2023-12-22T01:38:16;99990.97;;;6.47;89.85
39773;BME280;25451;51.960;6.250;2023-12-22T01:40:41;99983.47;;;6.42;89.77
39773;BME280;25451;51.960;6.250;2023-12-22T01:43:06;100004.94;;;6.45;89.53
39773;BME280;25451;51.960;6.250;2023-12-22T01:45:32;100016.13;;;6.44;89.98
39773;BME280;25451;51.960;6.250;2023-12-22T01:47:57;100022.44;;;6.44;89.70
39773;BME280;25451;51.960;6.250;2023-12-22T01:50:23;100018.50;;;6.40;90.24
39773;BME280;25451;51.960;6.250;2023-12-22T01:52:49;100020.41;;;6.40;90.24
39773;BME280;25451;51.960;6.250;2023-12-22T01:55:14;100020.16;;;6.41;89.94
39773;BME280;25451;51.960;6.250;2023-12-22T01:57:43;100014.06;;;6.39;89.83
39773;BME280;25451;51.960;6.250;2023-12-22T02:00:11;100029.47;;;6.40;90.14
39773;BME280;25451;51.960;6.250;2023-12-22T02:02:36;100032.19;;;6.40;90.69
39773;BME280;25451;51.960;6.250;2023-12-22T02:05:04;100014.91;;;6.40;90.52
39773;BME280;25451;51.960;6.250;2023-12-22T02:07:30;100018.00;;;6.43;90.29
39773;BME280;25451;51.960;6.250;2023-12-22T02:09:56;100028.38;;;6.41;90.00
39773;BME280;25451;51.960;6.250;2023-12-22T02:12:21;100015.50;;;6.42;90.14
39773;BME280;25451;51.960;6.250;2023-12-22T02:14:46;100006.34;;;6.36;90.26
39773;BME280;25451;51.960;6.250;2023-12-22T02:17:26;100026.47;;;6.42;90.09
39773;BME280;25451;51.960;6.250;2023-12-22T02:19:55;100025.03;;;6.39;90.13
39773;BME280;25451;51.960;6.250;2023-12-22T02:22:21;100025.28;;;6.38;90.41
39773;BME280;25451;51.960;6.250;2023-12-22T02:24:46;100036.84;;;6.40;89.60
39773;BME280;25451;51.960;6.250;2023-12-22T02:30:09;100030.75;;;6.38;89.93
39773;BME280;25451;51.960;6.250;2023-12-22T02:32:39;100023.38;;;6.38;89.89
39773;BME280;25451;51.960;6.250;2023-12-22T02:35:10;100024.34;;;6.32;89.89
39773;BME280;25451;51.960;6.250;2023-12-22T02:37:36;100030.41;;;6.34;90.14
39773;BME280;25451;51.960;6.250;2023-12-22T02:40:03;100027.66;;;6.34;90.13
39773;BME280;25451;51.960;6.250;2023-12-22T02:42:30;100041.47;;;6.39;89.90
39773;BME280;25451;51.960;6.250;2023-12-22T02:44:59;100018.50;;;6.40;90.22
39773;BME280;25451;51.960;6.250;2023-12-22T02:47:24;100007.53;;;6.40;89.91
39773;BME280;25451;51.960;6.250;2023-12-22T02:49:50;100002.91;;;6.41;89.96
39773;BME280;25451;51.960;6.250;2023-12-22T02:52:15;100012.78;;;6.42;89.98
39773;BME280;25451;51.960;6.250;2023-12-22T02:54:40;100006.44;;;6.41;89.76
39773;BME280;25451;51.960;6.250;2023-12-22T02:57:09;100009.19;;;6.41;89.83
39773;BME280;25451;51.960;6.250;2023-12-22T02:59:34;100001.56;;;6.43;90.01
39773;BME280;25451;51.960;6.250;2023-12-22T03:02:00;100000.25;;;6.46;89.46
39773;BME280;25451;51.960;6.250;2023-12-22T03:04:25;100005.16;;;6.44;89.56
39773;BME280;25451;51.960;6.250;2023-12-22T03:06:51;99995.63;;;6.46;90.29
39773;BME280;25451;51.960;6.250;2023-12-22T03:09:16;99995.03;;;6.44;90.36
39773;BME280;25451;51.960;6.250;2023-12-22T03:11:41;100006.59;;;6.46;90.50
39773;BME280;25451;51.960;6.250;2023-12-22T03:14:07;100020.03;;;6.48;90.47
39773;BME280;25451;51.960;6.250;2023-12-22T03:16:32;100053.19;;;6.46;89.95
39773;BME280;25451;51.960;6.250;2023-12-22T03:18:57;100072.38;;;6.46;90.17
39773;BME280;25451;51.960;6.250;2023-12-22T03:21:23;100086.69;;;6.48;90.29
39773;BME280;25451;51.960;6.250;2023-12-22T03:23:48;100089.28;;;6.43;89.45
39773;BME280;25451;51.960;6.250;2023-12-22T03:26:13;100047.22;;;6.38;89.57
39773;BME280;25451;51.960;6.250;2023-12-22T03:28:38;100045.56;;;6.37;89.60
39773;BME280;25451;51.960;6.250;2023-12-22T03:31:04;100052.34;;;6.34;89.55
39773;BME280;25451;51.960;6.250;2023-12-22T03:33:31;100045.66;;;6.30;89.58
39773;BME280;25451;51.960;6.250;2023-12-22T03:35:56;100043.38;;;6.27;89.87
39773;BME280;25451;51.960;6.250;2023-12-22T03:38:21;100064.25;;;6.28;90.07
39773;BME280;25451;51.960;6.250;2023-12-22T03:40:47;100075.31;;;6.22;89.92
39773;BME280;25451;51.960;6.250;2023-12-22T03:43:12;100088.75;;;6.23;89.97
39773;BME280;25451;51.960;6.250;2023-12-22T03:45:37;100067.31;;;6.20;89.81
39773;BME280;25451;51.960;6.250;2023-12-22T03:48:03;100036.81;;;6.17;89.65
39773;BME280;25451;51.960;6.250;2023-12-22T03:50:28;100064.44;;;6.15;90.27
39773;BME280;25451;51.960;6.250;2023-12-22T03:52:53;100063.22;;;6.11;89.69
39773;BME280;25451;51.960;6.250;2023-12-22T03:55:19;100073.22;;;6.06;90.15
39773;BME280;25451;51.960;6.250;2023-12-22T03:57:44;100079.31;;;6.08;89.99
39773;BME280;25451;51.960;6.250;2023-12-22T04:00:09;100081.22;;;6.07;90.04
39773;BME280;25451;51.960;6.250;2023-12-22T04:02:35;100077.88;;;6.05;90.21
39773;BME280;25451;51.960;6.250;2023-12-22T04:05:00;100075.97;;;6.06;90.80
39773;BME280;25451;51.960;6.250;2023-12-22T04:07:25;100075.38;;;6.04;90.40
39773;BME280;25451;51.960;6.250;2023-12-22T04:09:51;100071.19;;;6.01;90.01
39773;BME280;25451;51.960;6.250;2023-12-22T04:12:16;100061.78;;;5.97;90.14
39773;BME280;25451;51.960;6.250;2023-12-22T04:14:41;100056.66;;;6.01;90.03
39773;BME280;25451;51.960;6.250;2023-12-22T04:17:07;100060.22;;;6.01;90.26
39773;BME280;25451;51.960;6.250;2023-12-22T04:19:32;100057.72;;;6.00;90.03
39773;BME280;25451;51.960;6.250;2023-12-22T04:21:57;100063.22;;;6.00;90.20
39773;BME280;25451;51.960;6.250;2023-12-22T04:24:22;100049.97;;;5.97;90.40
39773;BME280;25451;51.960;6.250;2023-12-22T04:26:48;100057.59;;;5.95;90.22
39773;BME280;25451;51.960;6.250;2023-12-22T04:29:13;100047.13;;;5.92;90.49
39773;BME280;25451;51.960;6.250;2023-12-22T04:31:39;100056.19;;;5.92;90.16
39773;BME280;25451;51.960;6.250;2023-12-22T04:34:04;100044.13;;;5.93;90.47
39773;BME280;25451;51.960;6.250;2023-12-22T04:36:29;100038.06;;;5.91;90.77
39773;BME280;25451;51.960;6.250;2023-12-22T04:38:55;100053.66;;;5.91;90.49
39773;BME280;25451;51.960;6.250;2023-12-22T04:41:21;100044.63;;;5.90;90.17
39773;BME280;25451;51.960;6.250;2023-12-22T04:43:46;100049.25;;;5.90;90.35
39773;BME280;25451;51.960;6.250;2023-12-22T04:46:11;100053.53;;;5.85;90.58
39773;BME280;25451;51.960;6.250;2023-12-22T04:48:36;100052.22;;;5.88;90.31
39773;BME280;25451;51.960;6.250;2023-12-22T04:51:02;100051.63;;;5.86;90.36
39773;BME280;25451;51.960;6.250;2023-12-22T04:53:27;100060.44;;;5.88;90.61
39773;BME280;25451;51.960;6.250;2023-12-22T04:55:52;100069.47;;;5.88;90.17
39773;BME280;25451;51.960;6.250;2023-12-22T04:58:18;100071.59;;;5.86;90.04
39773;BME280;25451;51.960;6.250;2023-12-22T05:00:43;100084.25;;;5.88;90.63
39773;BME280;25451;51.960;6.250;2023-12-22T05:03:08;100078.78;;;5.88;90.69
39773;BME280;25451;51.960;6.250;2023-12-22T05:05:34;100096.03;;;5.88;90.48
39773;BME280;25451;51.960;6.250;2023-12-22T05:07:59;100105.69;;;5.91;90.99
39773;BME280;25451;51.960;6.250;2023-12-22T05:10:24;100108.66;;;5.89;90.35
39773;BME280;25451;51.960;6.250;2023-12-22T05:12:49;100124.63;;;5.92;90.32
39773;BME280;25451;51.960;6.250;2023-12-22T05:15:15;100121.91;;;5.92;90.58
39773;BME280;25451;51.960;6.250;2023-12-22T05:17:40;100102.25;;;5.95;90.75
39773;BME280;25451;51.960;6.250;2023-12-22T05:20:06;100096.16;;;5.93;90.41
39773;BME280;25451;51.960;6.250;2023-12-22T05:22:31;100105.59;;;5.97;90.49
39773;BME280;25451;51.960;6.250;2023-12-22T05:24:57;100105.94;;;6.01;90.86
39773;BME280;25451;51.960;6.250;2023-12-22T05:27:23;100100.03;;;6.04;90.22
39773;BME280;25451;51.960;6.250;2023-12-22T05:29:48;100104.44;;;6.05;90.85
39773;BME280;25451;51.960;6.250;2023-12-22T05:32:14;100106.72;;;6.08;90.78
39773;BME280;25451;51.960;6.250;2023-12-22T05:34:39;100108.16;;;6.10;90.63
39773;BME280;25451;51.960;6.250;2023-12-22T05:37:04;100096.94;;;6.12;90.34
39773;BME280;25451;51.960;6.250;2023-12-22T05:39:29;100096.72;;;6.13;90.23
39773;BME280;25451;51.960;6.250;2023-12-22T05:41:55;100088.50;;;6.13;90.51
39773;BME280;25451;51.960;6.250;2023-12-22T05:44:20;100093.88;;;6.20;90.75
39773;BME280;25451;51.960;6.250;2023-12-22T05:46:47;100101.84;;;6.21;90.61
39773;BME280;25451;51.960;6.250;2023-12-22T05:49:12;100100.19;;;6.20;90.24
39773;BME280;25451;51.960;6.250;2023-12-22T05:51:39;100098.06;;;6.22;90.32
39773;BME280;25451;51.960;6.250;2023-12-22T05:54:05;100087.94;;;6.23;90.48
39773;BME280;25451;51.960;6.250;2023-12-22T05:56:32;100086.16;;;6.28;90.16
39773;BME280;25451;51.960;6.250;2023-12-22T05:58:57;100059.59;;;6.29;90.56
39773;BME280;25451;51.960;6.250;2023-12-22T06:01:23;100060.66;;;6.28;90.36
39773;BME280;25451;51.960;6.250;2023-12-22T06:03:48;100070.06;;;6.32;90.63
39773;BME280;25451;51.960;6.250;2023-12-22T06:06:13;100103.31;;;6.35;90.57
39773;BME280;25451;51.960;6.250;2023-12-22T06:08:39;100090.22;;;6.37;90.30
39773;BME280;25451;51.960;6.250;2023-12-22T06:11:05;100068.09;;;6.39;90.27
39773;BME280;25451;51.960;6.250;2023-12-22T06:13:30;100060.06;;;6.37;90.17
39773;BME280;25451;51.960;6.250;2023-12-22T06:15:56;100070.81;;;6.39;90.43
39773;BME280;25451;51.960;6.250;2023-12-22T06:18:22;100074.75;;;6.43;90.47
39773;BME280;25451;51.960;6.250;2023-12-22T06:20:47;100086.31;;;6.45;90.13
39773;BME280;25451;51.960;6.250;2023-12-22T06:23:12;100085.22;;;6.46;90.13
39773;BME280;25451;51.960;6.250;2023-12-22T06:25:38;100084.44;;;6.45;90.30
39773;BME280;25451;51.960;6.250;2023-12-22T06:28:03;100087.50;;;6.49;90.41
39773;BME280;25451;51.960;6.250;2023-12-22T06:30:29;100067.72;;;6.47;90.22
39773;BME280;25451;51.960;6.250;2023-12-22T06:32:55;100042.81;;;6.48;90.30
39773;BME280;25451;51.960;6.250;2023-12-22T06:35:20;100055.22;;;6.51;90.00
39773;BME280;25451;51.960;6.250;2023-12-22T06:37:49;100065.59;;;6.49;90.11
39773;BME280;25451;51.960;6.250;2023-12-22T06:40:14;100075.25;;;6.51;90.12
39773;BME280;25451;51.960;6.250;2023-12-22T06:42:40;100069.78;;;6.51;90.46
39773;BME280;25451;51.960;6.250;2023-12-22T06:45:05;100071.91;;;6.49;90.18
39773;BME280;25451;51.960;6.250;2023-12-22T06:47:31;100061.06;;;6.54;90.22
39773;BME280;25451;51.960;6.250;2023-12-22T06:49:56;100057.00;;;6.57;90.45
39773;BME280;25451;51.960;6.250;2023-12-22T06:52:21;100055.13;;;6.57;90.78
39773;BME280;25451;51.960;6.250;2023-12-22T06:54:47;100040.56;;;6.57;90.10
39773;BME280;25451;51.960;6.250;2023-12-22T06:57:12;100033.41;;;6.56;90.45
39773;BME280;25451;51.960;6.250;2023-12-22T06:59:38;100029.34;;;6.58;90.06
39773;BME280;25451;51.960;6.250;2023-12-22T07:02:04;100019.47;;;6.57;90.40
39773;BME280;25451;51.960;6.250;2023-12-22T07:05:01;100027.44;;;6.59;89.97
39773;BME280;25451;51.960;6.250;2023-12-22T07:07:32;100025.78;;;6.58;90.69
39773;BME280;25451;51.960;6.250;2023-12-22T07:09:58;100034.00;;;6.58;90.36
39773;BME280;25451;51.960;6.250;2023-12-22T07:12:23;100031.25;;;6.58;90.48
39773;BME280;25451;51.960;6.250;2023-12-22T07:14:48;100049.97;;;6.61;90.23
39773;BME280;25451;51.960;6.250;2023-12-22T07:17:13;100053.06;;;6.64;90.65
39773;BME280;25451;51.960;6.250;2023-12-22T07:19:39;100034.13;;;6.63;91.02
39773;BME280;25451;51.960;6.250;2023-12-22T07:22:04;100031.75;;;6.66;90.79
39773;BME280;25451;51.960;6.250;2023-12-22T07:24:29;100048.53;;;6.70;90.51
39773;BME280;25451;51.960;6.250;2023-12-22T07:26:55;100065.97;;;6.76;90.34
39773;BME280;25451;51.960;6.250;2023-12-22T07:29:20;100073.09;;;6.77;90.72
39773;BME280;25451;51.960;6.250;2023-12-22T07:31:45;100074.28;;;6.81;90.52
39773;BME280;25451;51.960;6.250;2023-12-22T07:34:11;100065.00;;;6.82;90.61
39773;BME280;25451;51.960;6.250;2023-12-22T07:36:36;100062.03;;;6.83;90.46
39773;BME280;25451;51.960;6.250;2023-12-22T07:39:01;100066.19;;;6.86;90.90
39773;BME280;25451;51.960;6.250;2023-12-22T07:41:27;100071.78;;;6.91;90.84
39773;BME280;25451;51.960;6.250;2023-12-22T07:43:52;100060.81;;;6.91;90.67
39773;BME280;25451;51.960;6.250;2023-12-22T07:46:19;100061.41;;;6.93;90.68
39773;BME280;25451;51.960;6.250;2023-12-22T07:48:44;100068.94;;;6.97;90.45
39773;BME280;25451;51.960;6.250;2023-12-22T07:51:10;100082.19;;;7.00;90.61
39773;BME280;25451;51.960;6.250;2023-12-22T07:53:36;100078.94;;;7.03;90.55
39773;BME280;25451;51.960;6.250;2023-12-22T07:56:01;100078.94;;;7.03;90.50
39773;BME280;25451;51.960;6.250;2023-12-22T07:58:26;100074.66;;;7.07;90.61
39773;BME280;25451;51.960;6.250;2023-12-22T08:00:52;100074.41;;;7.09;90.59
39773;BME280;25451;51.960;6.250;2023-12-22T08:03:17;100076.66;;;7.12;90.52
39773;BME280;25451;51.960;6.250;2023-12-22T08:05:42;100064.59;;;7.13;90.46
39773;BME280;25451;51.960;6.250;2023-12-22T08:08:07;100071.53;;;7.15;90.99
39773;BME280;25451;51.960;6.250;2023-12-22T08:10:33;100066.63;;;7.17;90.69
39773;BME280;25451;51.960;6.250;2023-12-22T08:12:58;100071.41;;;7.22;90.18
39773;BME280;25451;51.960;6.250;2023-12-22T08:15:23;100074.75;;;7.24;90.82
39773;BME280;25451;51.960;6.250;2023-12-22T08:17:49;100076.78;;;7.28;90.42
39773;BME280;25451;51.960;6.250;2023-12-22T08:20:18;100072.94;;;7.29;90.88
39773;BME280;25451;51.960;6.250;2023-12-22T08:22:45;100072.72;;;7.31;90.82
39773;BME280;25451;51.960;6.250;2023-12-22T08:25:11;100080.44;;;7.34;90.78
39773;BME280;25451;51.960;6.250;2023-12-22T08:27:36;100074.50;;;7.37;90.39
39773;BME280;25451;51.960;6.250;2023-12-22T08:30:01;100069.59;;;7.39;90.96
39773;BME280;25451;51.960;6.250;2023-12-22T08:32:28;100058.09;;;7.42;90.72
39773;BME280;25451;51.960;6.250;2023-12-22T08:34:53;100069.44;;;7.45;90.36
39773;BME280;25451;51.960;6.250;2023-12-22T08:37:19;100064.19;;;7.44;90.58
39773;BME280;25451;51.960;6.250;2023-12-22T08:39:44;100070.63;;;7.49;90.26
39773;BME280;25451;51.960;6.250;2023-12-22T08:42:09;100063.22;;;7.50;90.79
39773;BME280;25451;51.960;6.250;2023-12-22T08:44:35;100051.41;;;7.49;90.47
39773;BME280;25451;51.960;6.250;2023-12-22T08:47:01;100045.69;;;7.51;90.80
39773;BME280;25451;51.960;6.250;2023-12-22T08:49:27;100048.50;;;7.56;90.28
39773;BME280;25451;51.960;6.250;2023-12-22T08:51:52;100043.63;;;7.58;90.34
39773;BME280;25451;51.960;6.250;2023-12-22T08:54:17;100063.44;;;7.60;90.64
39773;BME280;25451;51.960;6.250;2023-12-22T08:56:42;100059.63;;;7.61;90.14
39773;BME280;25451;51.960;6.250;2023-12-22T08:59:08;100054.13;;;7.61;90.46
39773;BME280;25451;51.960;6.250;2023-12-22T09:01:34;100050.28;;;7.62;90.65
39773;BME280;25451;51.960;6.250;2023-12-22T09:03:59;100047.06;;;7.65;90.38
39773;BME280;25451;51.960;6.250;2023-12-22T09:06:25;100036.31;;;7.64;90.55
39773;BME280;25451;51.960;6.250;2023-12-22T09:08:50;100047.06;;;7.65;90.42
39773;BME280;25451;51.960;6.250;2023-12-22T09:11:17;100044.66;;;7.69;90.31
39773;BME280;25451;51.960;6.250;2023-12-22T09:13:43;100045.50;;;7.69;90.91
39773;BME280;25451;51.960;6.250;2023-12-22T09:16:09;100030.09;;;7.68;90.38
39773;BME280;25451;51.960;6.250;2023-12-22T09:18:35;100034.84;;;7.73;90.27
39773;BME280;25451;51.960;6.250;2023-12-22T09:21:01;100026.34;;;7.74;90.79
39773;BME280;25451;51.960;6.250;2023-12-22T09:23:26;100020.38;;;7.77;90.74
39773;BME280;25451;51.960;6.250;2023-12-22T09:25:51;100023.97;;;7.78;90.92
39773;BME280;25451;51.960;6.250;2023-12-22T09:28:17;100019.06;;;7.80;90.79
39773;BME280;25451;51.960;6.250;2023-12-22T09:30:42;100028.69;;;7.82;90.61
39773;BME280;25451;51.960;6.250;2023-12-22T09:33:09;100022.97;;;7.84;90.55
39773;BME280;25451;51.960;6.250;2023-12-22T09:35:34;100025.47;;;7.85;91.00
39773;BME280;25451;51.960;6.250;2023-12-22T09:38:00;100027.97;;;7.87;90.89
39773;BME280;25451;51.960;6.250;2023-12-22T09:40:25;100017.81;;;7.87;90.97
39773;BME280;25451;51.960;6.250;2023-12-22T09:42:54;100010.75;;;7.91;90.70
39773;BME280;25451;51.960;6.250;2023-12-22T09:45:21;100016.31;;;7.96;90.79
39773;BME280;25451;51.960;6.250;2023-12-22T09:47:47;100014.16;;;7.98;90.49
39773;BME280;25451;51.960;6.250;2023-12-22T09:50:13;100020.25;;;8.00;90.88
39773;BME280;25451;51.960;6.250;2023-12-22T09:52:42;100018.06;;;8.02;90.87
39773;BME280;25451;51.960;6.250;2023-12-22T09:55:09;100024.16;;;8.04;90.54
39773;BME280;25451;51.960;6.250;2023-12-22T09:57:35;100012.09;;;8.05;90.33
39773;BME280;25451;51.960;6.250;2023-12-22T10:00:03;100011.59;;;8.08;90.55
39773;BME280;25451;51.960;6.250;2023-12-22T10:02:31;100003.94;;;8.10;90.71
39773;BME280;25451;51.960;6.250;2023-12-22T10:04:58;100007.84;;;8.14;90.53
39773;BME280;25451;51.960;6.250;2023-12-22T10:07:24;100008.47;;;8.16;91.07
39773;BME280;25451;51.960;6.250;2023-12-22T10:09:50;100011.78;;;8.18;90.86
39773;BME280;25451;51.960;6.250;2023-12-22T10:12:16;100007.47;;;8.22;90.60
39773;BME280;25451;51.960;6.250;2023-12-22T10:14:43;100014.63;;;8.23;90.92
39773;BME280;25451;51.960;6.250;2023-12-22T10:17:08;100014.97;;;8.27;90.67
39773;BME280;25451;51.960;6.250;2023-12-22T10:19:33;100029.66;;;8.32;91.08
39773;BME280;25451;51.960;6.250;2023-12-22T10:21:59;100027.50;;;8.34;90.95
39773;BME280;25451;51.960;6.250;2023-12-22T10:24:40;100016.50;;;8.34;90.81
39773;BME280;25451;51.960;6.250;2023-12-22T10:27:10;100030.56;;;8.38;90.59
39773;BME280;25451;51.960;6.250;2023-12-22T10:29:35;100038.56;;;8.40;90.53
39773;BME280;25451;51.960;6.250;2023-12-22T10:32:02;100017.16;;;8.42;90.83
39773;BME280;25451;51.960;6.250;2023-12-22T10:34:28;100025.66;;;8.40;90.64
39773;BME280;25451;51.960;6.250;2023-12-22T10:36:53;100036.13;;;8.43;90.24
39773;BME280;25451;51.960;6.250;2023-12-22T10:39:19;100018.81;;;8.43;90.64
39773;BME280;25451;51.960;6.250;2023-12-22T10:41:46;100030.41;;;8.45;90.61
39773;BME280;25451;51.960;6.250;2023-12-22T10:44:11;100018.81;;;8.43;90.69
39773;BME280;25451;51.960;6.250;2023-12-22T10:46:37;100023.81;;;8.46;90.67
39773;BME280;25451;51.960;6.250;2023-12-22T10:49:02;100025.97;;;8.44;90.68
39773;BME280;25451;51.960;6.250;2023-12-22T10:51:29;100020.47;;;8.44;90.74
39773;BME280;25451;51.960;6.250;2023-12-22T10:53:57;100020.00;;;8.47;90.96
39773;BME280;25451;51.960;6.250;2023-12-22T10:56:23;100017.81;;;8.49;90.81
39773;BME280;25451;51.960;6.250;2023-12-22T10:58:48;100019.72;;;8.48;91.04
39773;BME280;25451;51.960;6.250;2023-12-22T11:01:14;100015.06;;;8.49;91.02
39773;BME280;25451;51.960;6.250;2023-12-22T11:03:43;100010.16;;;8.51;91.34
39773;BME280;25451;51.960;6.250;2023-12-22T11:06:10;100017.88;;;8.54;90.90
39773;BME280;25451;51.960;6.250;2023-12-22T11:08:38;100011.31;;;8.55;91.24
39773;BME280;25451;51.960;6.250;2023-12-22T11:11:26;100003.06;;;8.55;91.02
39773;BME280;25451;51.960;6.250;2023-12-22T11:13:56;100005.31;;;8.58;90.91
39773;BME280;25451;51.960;6.250;2023-12-22T11:16:23;99994.28;;;8.58;90.88
39773;BME280;25451;51.960;6.250;2023-12-22T11:18:49;99993.81;;;8.61;91.00
39773;BME280;25451;51.960;6.250;2023-12-22T11:21:19;99991.06;;;8.61;91.49
39773;BME280;25451;51.960;6.250;2023-12-22T11:23:46;99978.38;;;8.60;91.10
39773;BME280;25451;51.960;6.250;2023-12-22T11:26:13;99986.78;;;8.70;91.13
39773;BME280;25451;51.960;6.250;2023-12-22T11:28:40;99993.69;;;8.72;91.09
39773;BME280;25451;51.960;6.250;2023-12-22T11:31:09;99989.63;;;8.75;91.16
39773;BME280;25451;51.960;6.250;2023-12-22T11:33:36;99998.19;;;8.78;91.02
39773;BME280;25451;51.960;6.250;2023-12-22T11:36:03;99994.09;;;8.81;91.03
39773;BME280;25451;51.960;6.250;2023-12-22T11:38:28;99981.41;;;8.80;91.02
39773;BME280;25451;51.960;6.250;2023-12-22T11:40:54;99978.75;;;8.85;91.24
39773;BME280;25451;51.960;6.250;2023-12-22T11:43:20;99998.06;;;8.90;91.37
39773;BME280;25451;51.960;6.250;2023-12-22T11:45:49;99983.81;;;8.93;91.39
39773;BME280;25451;51.960;6.250;2023-12-22T11:48:14;99999.81;;;8.96;91.36
39773;BME280;25451;51.960;6.250;2023-12-22T11:50:39;99997.63;;;8.98;91.32
39773;BME280;25451;51.960;6.250;2023-12-22T11:53:22;99994.97;;;9.03;91.33
39773;BME280;25451;51.960;6.250;2023-12-22T11:56:04;99995.81;;;9.03;91.47
39773;BME280;25451;51.960;6.250;2023-12-22T12:01:05;99969.44;;;9.07;91.15
39773;BME280;25451;51.960;6.250;2023-12-22T12:03:31;99972.19;;;9.07;91.19
39773;BME280;25451;51.960;6.250;2023-12-22T12:08:57;99976.94;;;9.12;91.35
39773;BME280;25451;51.960;6.250;2023-12-22T12:11:23;99969.81;;;9.16;91.29
39773;BME280;25451;51.960;6.250;2023-12-22T12:13:50;99961.03;;;9.19;91.34
39773;BME280;25451;51.960;6.250;2023-12-22T12:16:19;99948.69;;;9.22;91.43
39773;BME280;25451;51.960;6.250;2023-12-22T12:18:46;99949.00;;;9.25;91.19
39773;BME280;25451;51.960;6.250;2023-12-22T12:21:12;99945.41;;;9.25;91.38
39773;BME280;25451;51.960;6.250;2023-12-22T12:23:38;99939.91;;;9.25;91.41
39773;BME280;25451;51.960;6.250;2023-12-22T12:26:06;99944.38;;;9.31;91.44
39773;BME280;25451;51.960;6.250;2023-12-22T12:28:32;99956.22;;;9.31;91.46
39773;BME280;25451;51.960;6.250;2023-12-22T12:31:08;99945.47;;;9.30;91.50
39773;BME280;25451;51.960;6.250;2023-12-22T12:33:35;99961.72;;;9.31;91.56
39773;BME280;25451;51.960;6.250;2023-12-22T12:36:01;99950.44;;;9.33;91.16
39773;BME280;25451;51.960;6.250;2023-12-22T12:39:06;99955.97;;;9.33;91.06
39773;BME280;25451;51.960;6.250;2023-12-22T12:41:40;99941.63;;;9.31;91.40
39773;BME280;25451;51.960;6.250;2023-12-22T12:44:06;99941.88;;;9.29;91.30
39773;BME280;25451;51.960;6.250;2023-12-22T12:46:38;99940.72;;;9.25;91.39
39773;BME280;25451;51.960;6.250;2023-12-22T12:49:08;99934.38;;;9.25;91.26
39773;BME280;25451;51.960;6.250;2023-12-22T12:51:38;99920.88;;;9.23;91.39
39773;BME280;25451;51.960;6.250;2023-12-22T12:54:07;99917.53;;;9.16;91.37
39773;BME280;25451;51.960;6.250;2023-12-22T12:56:46;99923.06;;;9.21;91.29
39773;BME280;25451;51.960;6.250;2023-12-22T12:59:16;99931.78;;;9.13;91.37
39773;BME280;25451;51.960;6.250;2023-12-22T13:01:48;99923.03;;;9.16;91.43
39773;BME280;25451;51.960;6.250;2023-12-22T13:04:14;99893.81;;;9.15;91.40
39773;BME280;25451;51.960;6.250;2023-12-22T13:06:46;99933.69;;;9.12;91.56